Time;durP1;ratioP1;P1;durP2;ratioP2;P2;SDS_P1;SDS_P2;PMS_P1;PMS_P2;Temp;Humidity;BMP_temperature;BMP_pressure;BME280_temperature;BME280_humidity;BME280_pressure;Samples;Min_cycle;Max_cycle;Signal;HPM_P1;HPM_P2
2023/12/11 00:01:38;;;;;;;1.55;1.45;;;;;;;-10.77;88.02;100155.28;4972843;28;20061;-79
2023/12/11 00:04:16;;;;;;;1.48;1.38;;;;;;;-10.74;87.79;100150.72;4973004;28;20089;-80
2023/12/11 00:07:10;;;;;;;1.50;1.40;;;;;;;-10.71;88.00;100161.03;4961156;28;20046;-81
2023/12/11 00:09:40;;;;;;;1.35;1.25;;;;;;;-10.70;87.79;100152.25;4963142;28;20054;-80
2023/12/11 00:12:31;;;;;;;1.40;1.30;;;;;;;-10.70;87.65;100161.88;4962497;28;20047;-80
2023/12/11 00:14:59;;;;;;;1.58;1.48;;;;;;;-10.69;88.02;100155.72;4962781;28;20051;-79
2023/12/11 00:17:31;;;;;;;1.70;1.60;;;;;;;-10.64;87.98;100140.66;4971508;28;20051;-80
2023/12/11 00:20:28;;;;;;;1.10;1.10;;;;;;;-10.74;87.63;100158.56;4960090;28;20051;-79
2023/12/11 00:23:10;;;;;;;1.50;1.40;;;;;;;-10.77;87.92;100147.47;4933329;28;20165;-79
2023/12/11 00:25:46;;;;;;;1.00;1.00;;;;;;;-10.74;87.94;100160.34;4961317;28;20166;-79
2023/12/11 00:28:14;;;;;;;1.48;1.38;;;;;;;-10.70;88.05;100157.47;4960628;28;20051;-79
2023/12/11 00:30:41;;;;;;;1.20;1.20;;;;;;;-10.64;87.99;100150.25;4984545;28;20535;-79
2023/12/11 00:33:11;;;;;;;1.10;1.10;;;;;;;-10.61;88.23;100139.66;4974831;28;20100;-80
2023/12/11 00:35:38;;;;;;;1.02;1.02;;;;;;;-10.63;88.13;100131.94;4989910;28;20050;-79
2023/12/11 00:38:05;;;;;;;1.00;1.00;;;;;;;-10.62;88.14;100138.81;4980342;28;20065;-79
2023/12/11 00:40:33;;;;;;;1.15;1.15;;;;;;;-10.60;88.23;100151.78;4991987;28;20048;-79
2023/12/11 00:43:01;;;;;;;1.10;1.10;;;;;;;-10.59;88.29;100148.25;5007277;28;20073;-79
2023/12/11 00:45:28;;;;;;;1.10;1.10;;;;;;;-10.58;88.30;100155.13;4991994;28;20082;-78
2023/12/11 00:47:55;;;;;;;1.60;1.50;;;;;;;-10.61;88.04;100140.47;4991567;28;20065;-78
2023/12/11 00:50:24;;;;;;;1.50;1.40;;;;;;;-10.64;88.13;100145.03;4992195;28;20566;-80
2023/12/11 00:52:51;;;;;;;1.50;1.40;;;;;;;-10.65;88.28;100138.16;4991473;28;20066;-80
2023/12/11 00:55:18;;;;;;;1.25;1.20;;;;;;;-10.65;88.29;100130.31;4991718;28;20516;-80
2023/12/11 00:57:46;;;;;;;1.40;1.30;;;;;;;-10.64;88.16;100135.44;5006854;28;20122;-80
2023/12/11 01:00:15;;;;;;;1.27;1.20;;;;;;;-10.66;88.45;100124.22;4992441;28;20050;-79
2023/12/11 01:02:42;;;;;;;1.40;1.30;;;;;;;-10.67;88.35;100129.56;4992368;28;20100;-78
2023/12/11 01:05:10;;;;;;;1.52;1.42;;;;;;;-10.65;88.51;100125.94;4989761;28;20050;-79
2023/12/11 01:07:37;;;;;;;1.58;1.48;;;;;;;-10.60;88.59;100129.13;4971087;28;20055;-79
2023/12/11 01:10:05;;;;;;;1.45;1.35;;;;;;;-10.67;88.58;100113.91;4988091;28;20529;-80
2023/12/11 01:12:32;;;;;;;1.15;1.15;;;;;;;-10.67;88.75;100124.34;4971032;28;20054;-79
2023/12/11 01:15:03;;;;;;;1.55;1.45;;;;;;;-10.65;88.99;100132.94;4971299;28;20050;-79
2023/12/11 01:17:31;;;;;;;1.40;1.30;;;;;;;-10.72;89.09;100121.97;4972567;28;20042;-79
2023/12/11 01:20:08;;;;;;;1.40;1.30;;;;;;;-10.70;89.51;100120.13;4972423;28;20078;-79
2023/12/11 01:22:36;;;;;;;1.60;1.50;;;;;;;-10.71;89.43;100113.22;4987552;28;20058;-80
2023/12/11 01:25:03;;;;;;;1.60;1.50;;;;;;;-10.72;89.75;100117.59;4972279;28;20447;-79
2023/12/11 01:27:31;;;;;;;1.17;1.17;;;;;;;-10.68;90.18;100123.50;4972277;28;20043;-79
2023/12/11 01:30:02;;;;;;;1.40;1.30;;;;;;;-10.71;90.36;100113.22;4972087;28;20055;-79
2023/12/11 01:32:30;;;;;;;1.23;1.20;;;;;;;-10.79;90.32;100100.56;4973153;28;20118;-79
2023/12/11 01:34:57;;;;;;;1.52;1.42;;;;;;;-10.78;90.83;100111.88;4972374;28;20438;-79
2023/12/11 01:37:24;;;;;;;1.50;1.40;;;;;;;-10.82;90.88;100094.69;4970756;28;20051;-80
2023/12/11 01:39:51;;;;;;;1.10;1.10;;;;;;;-10.80;91.46;100105.91;4974677;28;20057;-79
2023/12/11 01:42:19;;;;;;;1.70;1.60;;;;;;;-10.79;91.48;100108.41;4975589;28;20082;-79
2023/12/11 01:44:46;;;;;;;1.60;1.50;;;;;;;-10.70;91.59;100114.91;4975177;28;20046;-79
2023/12/11 01:47:13;;;;;;;1.50;1.40;;;;;;;-10.70;91.63;100118.34;4974105;28;20049;-79
2023/12/11 01:49:41;;;;;;;1.00;1.00;;;;;;;-10.68;91.64;100115.69;4975288;28;20133;-79
2023/12/11 01:52:08;;;;;;;1.13;1.13;;;;;;;-10.69;91.77;100106.97;4973692;28;20397;-79
2023/12/11 01:54:38;;;;;;;1.02;1.02;;;;;;;-10.67;92.01;100099.09;4975409;28;20078;-79
2023/12/11 01:57:07;;;;;;;1.00;1.00;;;;;;;-10.70;91.93;100094.03;4975008;28;20070;-78
2023/12/11 01:59:35;;;;;;;1.40;1.30;;;;;;;-10.65;91.77;100089.41;4973914;28;20051;-79
2023/12/11 02:02:03;;;;;;;1.33;1.23;;;;;;;-10.66;92.14;100103.38;4973514;28;20113;-79
2023/12/11 02:04:30;;;;;;;1.42;1.33;;;;;;;-10.63;91.92;100105.84;4975071;28;20054;-79
2023/12/11 02:06:58;;;;;;;1.40;1.30;;;;;;;-10.63;91.98;100095.41;4973702;28;20493;-79
2023/12/11 02:09:26;;;;;;;1.48;1.38;;;;;;;-10.71;92.15;100093.19;4975075;28;20054;-79
2023/12/11 02:11:55;;;;;;;1.50;1.40;;;;;;;-10.66;92.50;100089.47;4973803;28;20137;-79
2023/12/11 02:14:23;;;;;;;1.20;1.20;;;;;;;-10.62;92.52;100086.63;4974561;28;20501;-79
2023/12/11 02:16:51;;;;;;;1.60;1.50;;;;;;;-10.62;92.34;100097.06;4974659;28;20098;-79
2023/12/11 02:19:18;;;;;;;1.10;1.10;;;;;;;-10.62;92.52;100091.00;4973534;28;20046;-79
2023/12/11 02:21:46;;;;;;;1.50;1.40;;;;;;;-10.63;92.58;100084.97;4974708;28;20505;-79
2023/12/11 02:24:38;;;;;;;1.42;1.33;;;;;;;-10.51;92.61;100088.66;4957692;28;20050;-79
2023/12/11 02:27:08;;;;;;;1.27;1.23;;;;;;;-10.52;92.43;100087.81;4973395;28;20509;-80
2023/12/11 02:29:35;;;;;;;1.10;1.10;;;;;;;-10.52;92.70;100095.63;4974311;28;20055;-78
2023/12/11 02:32:07;;;;;;;1.10;1.10;;;;;;;-10.50;92.78;100099.00;4973556;28;20059;-79
2023/12/11 02:34:34;;;;;;;1.08;1.08;;;;;;;-10.49;93.01;100095.47;4974870;28;20077;-79
2023/12/11 02:37:01;;;;;;;1.50;1.40;;;;;;;-10.54;93.02;100084.44;4973160;28;20050;-78
2023/12/11 02:39:28;;;;;;;1.00;1.00;;;;;;;-10.50;93.22;100091.19;4974773;28;20051;-79
2023/12/11 02:41:56;;;;;;;1.35;1.25;;;;;;;-10.48;93.29;100107.59;4974557;28;20046;-79
2023/12/11 02:44:26;;;;;;;1.50;1.40;;;;;;;-10.52;93.21;100108.69;4957216;28;20154;-77
2023/12/11 02:46:53;;;;;;;1.33;1.23;;;;;;;-10.62;93.30;100102.28;4957028;28;20395;-79
2023/12/11 02:49:26;;;;;;;1.42;1.33;;;;;;;-10.61;93.41;100103.13;4972334;28;20094;-76
2023/12/11 02:51:53;;;;;;;1.40;1.30;;;;;;;-10.55;93.46;100123.69;4973299;28;20289;-78
2023/12/11 02:54:20;;;;;;;1.10;1.10;;;;;;;-10.49;93.86;100118.13;4974293;28;20134;-78
2023/12/11 02:56:48;;;;;;;1.15;1.15;;;;;;;-10.41;93.88;100121.16;4973775;28;20066;-78
2023/12/11 02:59:15;;;;;;;1.42;1.33;;;;;;;-10.44;93.70;100123.94;4973767;28;20461;-78
2023/12/11 03:01:42;;;;;;;1.13;1.13;;;;;;;-10.43;93.76;100114.31;4974009;28;20062;-81
2023/12/11 03:04:09;;;;;;;1.10;1.10;;;;;;;-10.42;93.75;100114.25;4972422;28;20051;-77
2023/12/11 03:06:36;;;;;;;0.82;0.82;;;;;;;-10.39;94.01;100118.47;4973524;28;20042;-77
2023/12/11 03:09:04;;;;;;;1.02;1.02;;;;;;;-10.45;93.75;100098.78;4973438;28;20073;-76
2023/12/11 03:11:31;;;;;;;1.15;1.15;;;;;;;-10.47;93.79;100080.56;4973793;28;20082;-78
2023/12/11 03:13:58;;;;;;;1.27;1.20;;;;;;;-10.47;93.88;100093.63;4973712;28;20058;-78
2023/12/11 03:16:26;;;;;;;1.25;1.23;;;;;;;-10.44;94.12;100087.38;4973478;28;20054;-79
2023/12/11 03:18:53;;;;;;;1.23;1.20;;;;;;;-10.41;94.15;100091.59;4973392;28;20413;-79
2023/12/11 03:21:20;;;;;;;1.23;1.20;;;;;;;-10.37;94.15;100103.56;4973992;28;20133;-79
2023/12/11 03:23:48;;;;;;;1.10;1.10;;;;;;;-10.37;94.10;100100.94;4988597;28;20047;-78
2023/12/11 03:26:15;;;;;;;1.42;1.33;;;;;;;-10.38;93.93;100102.72;4973550;28;20046;-78
2023/12/11 03:28:43;;;;;;;1.30;1.23;;;;;;;-10.34;94.01;100098.16;4974005;28;20047;-78
2023/12/11 03:31:10;;;;;;;1.60;1.50;;;;;;;-10.29;93.74;100091.75;4973488;28;20117;-77
2023/12/11 03:33:40;;;;;;;1.02;1.02;;;;;;;-10.29;93.60;100086.53;4987772;28;20064;-78
2023/12/11 03:36:08;;;;;;;1.40;1.30;;;;;;;-10.25;93.63;100092.41;4972659;28;20097;-79
2023/12/11 03:38:35;;;;;;;1.35;1.25;;;;;;;-10.23;93.20;100087.91;4972853;28;20370;-79
2023/12/11 03:41:03;;;;;;;1.42;1.33;;;;;;;-10.26;92.90;100088.09;4987783;28;20081;-79
2023/12/11 03:43:30;;;;;;;1.58;1.48;;;;;;;-10.25;92.92;100100.25;4972810;28;20556;-79
2023/12/11 03:45:57;;;;;;;1.45;1.35;;;;;;;-10.25;92.93;100100.25;4972648;28;20051;-79
2023/12/11 03:48:24;;;;;;;1.48;1.38;;;;;;;-10.24;92.90;100101.91;4971705;28;20046;-78
2023/12/11 03:50:52;;;;;;;1.40;1.30;;;;;;;-10.26;92.62;100088.94;4972295;28;20074;-78
2023/12/11 03:53:19;;;;;;;1.50;1.40;;;;;;;-10.39;92.75;100094.97;4971378;28;20058;-79
2023/12/11 03:55:47;;;;;;;1.50;1.40;;;;;;;-10.34;93.12;100087.72;4972534;28;20070;-78
2023/12/11 03:58:14;;;;;;;1.38;1.27;;;;;;;-10.30;92.90;100091.88;4972660;28;20058;-78
2023/12/11 04:00:41;;;;;;;1.60;1.50;;;;;;;-10.23;92.93;100089.69;4972290;28;20047;-78
2023/12/11 04:03:11;;;;;;;1.10;1.10;;;;;;;-10.24;92.81;100094.09;4972242;28;20060;-78
2023/12/11 04:05:39;;;;;;;1.40;1.30;;;;;;;-10.25;92.96;100097.63;4971456;28;20485;-78
2023/12/11 04:08:06;;;;;;;1.30;1.20;;;;;;;-10.30;92.87;100092.69;4971356;28;20426;-78
2023/12/11 04:10:34;;;;;;;1.00;1.00;;;;;;;-10.22;92.66;100081.78;4972366;28;20047;-78
2023/12/11 04:13:07;;;;;;;1.30;1.20;;;;;;;-10.20;92.59;100079.94;4986151;28;20592;-78
2023/12/11 04:15:35;;;;;;;1.40;1.30;;;;;;;-10.15;92.58;100077.91;4971215;28;20051;-80
2023/12/11 04:18:02;;;;;;;1.08;1.08;;;;;;;-10.13;92.58;100076.03;4972232;28;20465;-79
2023/12/11 04:20:29;;;;;;;1.40;1.30;;;;;;;-10.14;92.50;100084.81;4972375;28;20050;-78
2023/12/11 04:22:56;;;;;;;1.15;1.15;;;;;;;-10.12;92.28;100082.97;4972528;28;20057;-79
2023/12/11 04:25:24;;;;;;;1.48;1.38;;;;;;;-10.07;92.46;100080.09;4972800;28;20061;-78
2023/12/11 04:27:51;;;;;;;1.38;1.27;;;;;;;-10.07;92.28;100075.69;4972119;28;20142;-78
2023/12/11 04:30:18;;;;;;;1.10;1.10;;;;;;;-10.03;92.34;100084.19;4972577;28;20141;-78
2023/12/11 04:32:45;;;;;;;1.40;1.30;;;;;;;-9.98;92.11;100092.59;4972266;28;20051;-78
2023/12/11 04:35:13;;;;;;;1.33;1.25;;;;;;;-9.93;92.11;100084.50;4970730;28;20054;-78
2023/12/11 04:37:40;;;;;;;1.17;1.17;;;;;;;-9.91;92.07;100088.72;4971986;28;20089;-79
2023/12/11 04:40:10;;;;;;;1.25;1.20;;;;;;;-9.89;91.66;100086.88;4971323;28;20102;-79
2023/12/11 04:42:38;;;;;;;1.00;1.00;;;;;;;-9.90;91.72;100090.41;4971421;28;20054;-78
2023/12/11 04:45:05;;;;;;;1.20;1.17;;;;;;;-9.87;91.67;100092.00;4970743;28;20427;-79
2023/12/11 04:47:33;;;;;;;1.17;1.17;;;;;;;-9.83;91.64;100090.88;4954440;28;20055;-79
2023/12/11 04:50:00;;;;;;;1.08;1.08;;;;;;;-9.84;91.37;100095.28;4970007;28;20051;-79
2023/12/11 04:52:34;;;;;;;1.13;1.13;;;;;;;-9.81;91.69;100094.25;4971938;28;20066;-79
2023/12/11 04:55:01;;;;;;;1.00;1.00;;;;;;;-9.80;91.39;100098.53;4970599;28;20054;-79
2023/12/11 04:57:29;;;;;;;1.20;1.17;;;;;;;-9.88;91.26;100087.69;4971780;28;20595;-79
2023/12/11 04:59:57;;;;;;;1.13;1.13;;;;;;;-9.87;91.42;100085.00;4971977;28;20600;-78
2023/12/11 05:02:26;;;;;;;1.10;1.10;;;;;;;-9.85;91.59;100087.53;4972354;28;20054;-78
2023/12/11 05:04:53;;;;;;;1.08;1.08;;;;;;;-9.84;91.61;100097.06;4971908;28;20070;-78
2023/12/11 05:07:20;;;;;;;1.10;1.10;;;;;;;-9.83;91.40;100094.34;4972173;28;20050;-79
2023/12/11 05:09:48;;;;;;;1.08;1.08;;;;;;;-9.84;91.36;100091.84;4986335;28;20047;-79
2023/12/11 05:12:15;;;;;;;1.00;1.00;;;;;;;-9.83;91.51;100096.13;4971366;28;20109;-79
2023/12/11 05:14:42;;;;;;;1.45;1.35;;;;;;;-9.81;91.62;100089.03;4989180;28;20093;-79
2023/12/11 05:17:12;;;;;;;1.30;1.20;;;;;;;-9.78;91.31;100094.06;4958389;28;20047;-78
2023/12/11 05:19:40;;;;;;;1.10;1.10;;;;;;;-9.78;91.33;100096.69;4974156;28;20054;-79
2023/12/11 05:22:10;;;;;;;1.08;1.08;;;;;;;-9.79;91.42;100091.56;4973994;28;20051;-78
2023/12/11 05:24:38;;;;;;;1.10;1.10;;;;;;;-9.82;91.20;100084.75;4975797;28;20054;-79
2023/12/11 05:27:08;;;;;;;1.27;1.20;;;;;;;-9.80;91.68;100080.25;4974646;28;20101;-79
2023/12/11 05:29:35;;;;;;;1.10;1.10;;;;;;;-9.79;91.50;100081.97;4975190;28;20078;-79
2023/12/11 05:32:07;;;;;;;0.95;0.95;;;;;;;-9.87;91.32;100065.91;4973767;28;20059;-78
2023/12/11 05:34:36;;;;;;;1.15;1.15;;;;;;;-9.79;91.36;100073.28;4975203;28;20050;-79
2023/12/11 05:37:04;;;;;;;1.27;1.20;;;;;;;-9.76;91.30;100083.56;4974221;28;20395;-80
2023/12/11 05:39:41;;;;;;;0.90;0.90;;;;;;;-9.72;91.24;100087.66;4975342;28;20047;-79
2023/12/11 05:42:24;;;;;;;1.00;1.00;;;;;;;-9.70;91.41;100085.78;4975757;28;20055;-79
2023/12/11 05:44:51;;;;;;;1.15;1.15;;;;;;;-9.75;91.08;100085.22;4975436;28;20133;-79
2023/12/11 05:47:19;;;;;;;1.10;1.10;;;;;;;-9.76;90.97;100070.50;4974215;28;20071;-78
2023/12/11 05:49:46;;;;;;;1.40;1.30;;;;;;;-9.71;90.93;100079.72;4974035;28;20050;-78
2023/12/11 05:52:18;;;;;;;1.50;1.40;;;;;;;-9.68;91.13;100079.56;4974131;28;20458;-79
2023/12/11 05:54:45;;;;;;;1.10;1.10;;;;;;;-9.62;91.29;100067.88;4968908;28;20043;-78
2023/12/11 05:57:13;;;;;;;1.40;1.30;;;;;;;-9.56;91.04;100074.56;4962095;28;20173;-78
2023/12/11 05:59:40;;;;;;;1.00;1.00;;;;;;;-9.52;91.28;100068.19;4980030;28;20132;-78
2023/12/11 06:02:07;;;;;;;1.20;1.20;;;;;;;-9.44;91.29;100066.81;4963336;28;20046;-78
2023/12/11 06:04:36;;;;;;;1.30;1.20;;;;;;;-9.41;91.38;100071.03;4982040;28;20065;-78
2023/12/11 06:07:07;;;;;;;1.00;1.00;;;;;;;-9.45;91.24;100053.84;4979447;28;20496;-78
2023/12/11 06:09:34;;;;;;;1.10;1.10;;;;;;;-9.43;91.27;100065.88;4975949;28;20054;-78
2023/12/11 06:12:02;;;;;;;1.10;1.10;;;;;;;-9.38;91.20;100068.22;4981648;28;20058;-78
2023/12/11 06:14:33;;;;;;;1.00;1.00;;;;;;;-9.34;91.12;100061.88;4977987;28;20051;-78
2023/12/11 06:17:00;;;;;;;1.27;1.20;;;;;;;-9.33;90.98;100055.72;4980553;28;20136;-78
2023/12/11 06:19:27;;;;;;;0.90;0.90;;;;;;;-9.36;90.95;100066.38;4960129;28;20487;-78
2023/12/11 06:21:55;;;;;;;1.10;1.10;;;;;;;-9.42;90.69;100051.91;4980697;28;20047;-78
2023/12/11 06:24:22;;;;;;;1.17;1.17;;;;;;;-9.35;91.23;100057.56;4979842;28;20050;-78
2023/12/11 06:26:49;;;;;;;1.30;1.20;;;;;;;-9.31;91.06;100055.63;4975354;28;20053;-78
2023/12/11 06:29:17;;;;;;;1.10;1.10;;;;;;;-9.27;91.10;100055.34;4976815;28;20086;-79
2023/12/11 06:31:47;;;;;;;1.20;1.17;;;;;;;-9.24;90.74;100056.91;4971898;28;20149;-77
2023/12/11 06:34:14;;;;;;;1.33;1.23;;;;;;;-9.23;90.83;100049.00;4982269;28;20042;-78
2023/12/11 06:36:42;;;;;;;1.33;1.23;;;;;;;-9.20;90.67;100045.34;4969034;28;20142;-77
2023/12/11 06:39:10;;;;;;;1.08;1.08;;;;;;;-9.21;90.41;100052.38;4975232;28;20511;-77
2023/12/11 06:41:37;;;;;;;1.10;1.10;;;;;;;-9.16;90.39;100052.94;4971648;28;20050;-77
2023/12/11 06:44:04;;;;;;;1.10;1.10;;;;;;;-9.10;90.59;100053.47;4633320;28;10000149;-78
2023/12/11 06:46:32;;;;;;;0.82;0.82;;;;;;;-9.09;90.54;100045.53;4974800;28;20584;-77
2023/12/11 06:48:59;;;;;;;1.15;1.15;;;;;;;-9.03;90.36;100047.78;4980251;28;20046;-76
2023/12/11 06:51:27;;;;;;;1.00;1.00;;;;;;;-8.99;90.43;100048.41;4979448;28;20081;-76
2023/12/11 06:53:58;;;;;;;1.00;1.00;;;;;;;-9.01;90.18;100045.09;4976671;28;20047;-76
2023/12/11 06:56:27;;;;;;;1.30;1.23;;;;;;;-9.01;90.25;100051.16;4979520;28;20457;-75
2023/12/11 06:58:55;;;;;;;1.00;1.00;;;;;;;-8.98;90.32;100044.88;4974320;28;20042;-75
2023/12/11 07:01:27;;;;;;;1.10;1.10;;;;;;;-8.97;90.01;100050.00;4980133;28;20061;-77
2023/12/11 07:03:55;;;;;;;1.15;1.15;;;;;;;-8.96;90.24;100050.88;4970807;28;20145;-76
2023/12/11 07:06:23;;;;;;;1.27;1.20;;;;;;;-8.94;89.95;100048.97;4961196;28;20477;-75
2023/12/11 07:08:51;;;;;;;0.90;0.90;;;;;;;-9.08;89.94;100051.63;4970386;28;20046;-75
2023/12/11 07:11:18;;;;;;;1.30;1.20;;;;;;;-9.02;90.18;100046.00;4979131;28;20062;-75
2023/12/11 07:13:46;;;;;;;0.95;0.95;;;;;;;-8.98;89.94;100009.09;4969023;28;20149;-75
2023/12/11 07:16:13;;;;;;;1.08;1.08;;;;;;;-9.04;90.00;100047.88;4969648;28;20137;-75
2023/12/11 07:18:41;;;;;;;1.05;1.05;;;;;;;-9.08;89.99;100036.75;4978282;28;20051;-75
2023/12/11 07:21:09;;;;;;;1.13;1.13;;;;;;;-8.94;89.98;100038.50;4971036;28;20058;-76
2023/12/11 07:23:37;;;;;;;0.80;0.80;;;;;;;-8.85;89.69;100037.94;4975127;28;20071;-76
2023/12/11 07:26:08;;;;;;;1.00;1.00;;;;;;;-8.90;89.36;100040.00;4958505;28;20046;-76
2023/12/11 07:28:36;;;;;;;1.40;1.30;;;;;;;-8.87;89.17;100025.91;4971173;28;20082;-76
2023/12/11 07:31:05;;;;;;;1.10;1.10;;;;;;;-8.85;89.07;100037.94;4975020;28;20108;-76
2023/12/11 07:33:33;;;;;;;1.08;1.08;;;;;;;-8.83;89.00;100032.63;4975134;28;20765;-76
2023/12/11 07:36:02;;;;;;;1.20;1.20;;;;;;;-8.78;88.89;100015.72;4967992;28;20050;-77
2023/12/11 07:38:30;;;;;;;1.15;1.15;;;;;;;-8.63;88.57;100021.75;4974082;28;20050;-77
2023/12/11 07:40:57;;;;;;;1.10;1.10;;;;;;;-8.55;88.40;100027.34;4970820;28;20779;-76
2023/12/11 07:43:25;;;;;;;1.20;1.20;;;;;;;-8.47;88.19;100021.59;4969178;28;20137;-76
2023/12/11 07:45:53;;;;;;;1.10;1.10;;;;;;;-8.38;87.94;100025.38;4971361;28;20050;-75
2023/12/11 07:48:20;;;;;;;1.25;1.20;;;;;;;-8.39;88.00;100014.06;4970031;28;20043;-75
2023/12/11 07:50:48;;;;;;;1.30;1.23;;;;;;;-8.49;87.69;99999.91;4967735;28;20068;-76
2023/12/11 07:53:15;;;;;;;1.25;1.20;;;;;;;-8.56;87.74;100009.97;4974422;28;20051;-78
2023/12/11 07:55:42;;;;;;;0.90;0.90;;;;;;;-8.57;88.04;100012.66;4974005;28;20066;-75
2023/12/11 07:58:13;;;;;;;1.35;1.25;;;;;;;-8.60;88.27;100005.84;4978043;28;20134;-75
2023/12/11 08:00:41;;;;;;;1.10;1.10;;;;;;;-8.56;88.40;100011.72;4974009;28;20070;-75
2023/12/11 08:03:08;;;;;;;1.00;1.00;;;;;;;-8.45;88.32;100006.66;4975880;28;20050;-74
2023/12/11 08:05:36;;;;;;;0.90;0.90;;;;;;;-8.46;88.00;99994.47;4972502;28;20154;-75
2023/12/11 08:08:03;;;;;;;1.10;1.10;;;;;;;-8.43;87.75;99964.63;4971049;28;20051;-73
2023/12/11 08:10:30;;;;;;;1.10;1.10;;;;;;;-8.41;87.70;99991.56;4975125;28;20535;-75
2023/12/11 08:12:58;;;;;;;1.00;1.00;;;;;;;-8.35;87.72;99988.53;4973765;28;20053;-76
2023/12/11 08:15:25;;;;;;;1.17;1.17;;;;;;;-8.37;87.58;99982.53;4971092;28;20069;-75
2023/12/11 08:17:52;;;;;;;0.90;0.90;;;;;;;-8.38;87.62;99963.38;4974149;28;20074;-76
2023/12/11 08:20:20;;;;;;;1.02;1.02;;;;;;;-8.39;87.46;99961.69;4972752;28;20055;-76
2023/12/11 08:22:48;;;;;;;1.10;1.10;;;;;;;-8.52;87.60;99959.06;4969834;28;20061;-76
2023/12/11 08:25:15;;;;;;;1.10;1.10;;;;;;;-8.40;87.72;99975.75;4952914;28;20069;-76
2023/12/11 08:27:43;;;;;;;1.30;1.20;;;;;;;-8.40;87.85;99975.75;4955493;28;20059;-76
2023/12/11 08:30:14;;;;;;;0.95;0.95;;;;;;;-8.38;87.73;99975.63;4971958;28;20143;-76
2023/12/11 08:32:42;;;;;;;1.13;1.13;;;;;;;-8.40;87.69;99975.75;4972009;28;20443;-76
2023/12/11 08:35:09;;;;;;;0.93;0.93;;;;;;;-8.51;87.92;99970.38;4986049;28;20387;-76
2023/12/11 08:37:37;;;;;;;1.00;1.00;;;;;;;-8.55;87.87;99921.78;4971756;28;20055;-76
2023/12/11 08:40:05;;;;;;;1.08;1.08;;;;;;;-8.64;87.68;99959.03;4971308;28;20525;-76
2023/12/11 08:42:35;;;;;;;1.40;1.30;;;;;;;-8.68;87.86;99965.38;4970916;28;20502;-76
2023/12/11 08:45:08;;;;;;;1.00;1.00;;;;;;;-8.68;88.22;99973.22;4971833;28;20074;-76
2023/12/11 08:47:36;;;;;;;1.10;1.10;;;;;;;-8.68;88.33;99965.38;4954435;28;20077;-76
2023/12/11 08:50:09;;;;;;;1.25;1.20;;;;;;;-8.65;88.58;99966.03;4975671;28;20137;-76
2023/12/11 08:52:38;;;;;;;1.10;1.10;;;;;;;-8.67;88.58;99946.13;4974747;28;20069;-76
2023/12/11 08:55:05;;;;;;;1.35;1.25;;;;;;;-8.63;88.76;99947.59;4975823;28;20043;-76
2023/12/11 08:57:34;;;;;;;1.10;1.10;;;;;;;-8.58;88.82;99953.38;4976082;28;20058;-76
2023/12/11 09:00:05;;;;;;;1.30;1.20;;;;;;;-8.62;88.51;99925.75;4975750;28;20106;-76
2023/12/11 09:02:33;;;;;;;1.10;1.10;;;;;;;-8.72;88.49;99949.88;4975710;28;20063;-76
2023/12/11 09:05:00;;;;;;;1.23;1.20;;;;;;;-8.76;88.59;99926.63;4974268;28;20046;-76
2023/12/11 09:07:30;;;;;;;1.10;1.10;;;;;;;-8.70;88.77;99925.41;4975888;28;20494;-76
2023/12/11 09:09:58;;;;;;;1.00;1.00;;;;;;;-8.68;88.69;99931.34;4990202;28;20074;-76
2023/12/11 09:12:25;;;;;;;1.10;1.10;;;;;;;-8.71;88.89;99932.41;4975694;28;20051;-76
2023/12/11 09:15:01;;;;;;;1.10;1.10;;;;;;;-8.76;88.63;99924.00;4972081;28;20565;-77
2023/12/11 09:17:33;;;;;;;1.17;1.17;;;;;;;-8.67;89.09;99922.59;4961139;28;20124;-76
2023/12/11 09:20:07;;;;;;;1.10;1.10;;;;;;;-8.52;89.21;99918.97;4973491;28;20102;-76
2023/12/11 09:22:37;;;;;;;1.00;1.00;;;;;;;-8.58;89.11;99911.50;4975364;28;20097;-76
2023/12/11 09:25:06;;;;;;;1.40;1.30;;;;;;;-8.58;89.05;99920.22;4975181;28;20053;-76
2023/12/11 09:27:33;;;;;;;1.20;1.20;;;;;;;-8.52;88.96;99911.94;4973190;28;20473;-76
2023/12/11 09:30:00;;;;;;;1.35;1.25;;;;;;;-8.52;88.80;99905.88;4985941;28;20120;-76
2023/12/11 09:32:30;;;;;;;1.30;1.20;;;;;;;-8.55;88.77;99893.81;4983449;28;20476;-76
2023/12/11 09:34:57;;;;;;;1.27;1.17;;;;;;;-8.56;88.78;99893.91;4975037;28;20053;-76
2023/12/11 09:37:25;;;;;;;1.08;1.08;;;;;;;-8.61;89.12;99894.22;4975402;28;20069;-76
2023/12/11 09:39:52;;;;;;;0.98;0.98;;;;;;;-8.59;89.32;99897.56;4974782;28;20055;-76
2023/12/11 09:42:20;;;;;;;1.42;1.33;;;;;;;-8.60;89.13;99892.47;4975364;28;20075;-76
2023/12/11 09:44:48;;;;;;;1.08;1.08;;;;;;;-8.65;89.10;99891.91;4973417;28;20478;-76
2023/12/11 09:47:43;;;;;;;1.00;1.00;;;;;;;-8.60;89.50;99884.59;4974995;28;20082;-76
2023/12/11 09:50:13;;;;;;;1.00;1.00;;;;;;;-8.59;89.54;99879.25;4970322;28;20066;-76
2023/12/11 09:52:41;;;;;;;1.00;1.00;;;;;;;-8.57;89.36;99876.53;4975162;28;20050;-76
2023/12/11 09:55:09;;;;;;;0.90;0.90;;;;;;;-8.61;89.65;99888.97;4945624;28;20071;-77
2023/12/11 09:57:38;;;;;;;1.00;1.00;;;;;;;-8.61;89.75;99872.44;4970443;28;20059;-77
2023/12/11 10:00:08;;;;;;;1.00;1.00;;;;;;;-8.59;89.90;99870.56;4960125;28;20059;-77
2023/12/11 10:02:38;;;;;;;1.00;1.00;;;;;;;-8.45;90.41;99874.91;4975691;28;20417;-77
2023/12/11 10:05:10;;;;;;;1.10;1.10;;;;;;;-8.37;90.06;99862.94;4969462;28;20058;-77
2023/12/11 10:07:41;;;;;;;1.00;1.00;;;;;;;-8.31;89.78;99859.88;4962779;28;20142;-79
2023/12/11 10:10:30;;;;;;;1.05;1.05;;;;;;;-8.21;89.71;99856.66;4955312;28;20486;-78
2023/12/11 10:12:58;;;;;;;1.40;1.30;;;;;;;-8.24;89.47;99862.94;4957672;28;20054;-77
2023/12/11 10:15:35;;;;;;;1.00;1.00;;;;;;;-8.25;89.35;99858.66;4982238;28;20111;-77
2023/12/11 10:18:08;;;;;;;1.17;1.17;;;;;;;-8.21;89.22;99869.75;4983693;28;20133;-77
2023/12/11 10:20:38;;;;;;;1.00;1.00;;;;;;;-8.24;88.91;99870.81;4977133;28;20054;-77
2023/12/11 10:23:14;;;;;;;1.33;1.23;;;;;;;-8.19;88.91;99866.09;4982427;28;20648;-77
2023/12/11 10:25:48;;;;;;;1.05;1.05;;;;;;;-8.18;89.01;99856.44;4977044;28;20082;-77
2023/12/11 10:28:17;;;;;;;1.05;1.05;;;;;;;-8.00;88.99;99862.19;4981416;28;20058;-77
2023/12/11 10:30:55;;;;;;;1.02;1.02;;;;;;;-8.07;88.18;99867.03;4980154;28;20064;-77
2023/12/11 10:33:24;;;;;;;1.00;1.00;;;;;;;-8.09;88.25;99853.22;4978904;28;20062;-77
2023/12/11 10:36:09;;;;;;;0.90;0.90;;;;;;;-8.12;88.62;99848.19;4970843;28;20149;-76
2023/12/11 10:38:36;;;;;;;1.10;1.10;;;;;;;-8.08;88.34;99849.63;4985406;28;20138;-77
2023/12/11 10:41:03;;;;;;;1.10;1.10;;;;;;;-8.03;88.28;99858.00;4980453;28;20138;-79
2023/12/11 10:43:41;;;;;;;1.50;1.40;;;;;;;-8.11;88.21;99861.16;4978694;28;20085;-78
2023/12/11 10:46:12;;;;;;;1.08;1.08;;;;;;;-8.06;88.40;99845.13;4975214;28;20053;-77
2023/12/11 10:48:39;;;;;;;1.38;1.27;;;;;;;-8.06;88.28;99842.50;4980198;28;20509;-77
2023/12/11 10:51:08;;;;;;;1.00;1.00;;;;;;;-8.08;88.19;99839.16;4974503;28;20561;-77
2023/12/11 10:53:35;;;;;;;1.00;1.00;;;;;;;-8.09;88.30;99833.09;4959294;28;20082;-77
2023/12/11 10:56:03;;;;;;;1.30;1.20;;;;;;;-8.07;88.17;99835.59;4961449;28;20062;-76
2023/12/11 10:58:30;;;;;;;0.93;0.93;;;;;;;-8.06;88.34;99826.78;4975997;28;20050;-77
2023/12/11 11:01:01;;;;;;;1.00;1.00;;;;;;;-8.11;88.08;99832.34;4957369;28;20051;-76
2023/12/11 11:03:33;;;;;;;1.05;1.05;;;;;;;-8.05;87.86;99833.72;4954467;28;20086;-76
2023/12/11 11:06:01;;;;;;;0.90;0.90;;;;;;;-8.01;87.75;99824.69;4958389;28;20098;-77
2023/12/11 11:08:51;;;;;;;0.95;0.95;;;;;;;-8.00;87.81;99836.00;4968125;28;20137;-76
2023/12/11 11:11:32;;;;;;;1.20;1.20;;;;;;;-8.08;87.47;99824.31;4955685;28;20138;-78
2023/12/11 11:14:40;;;;;;;0.98;0.98;;;;;;;-8.06;87.71;99818.94;4961143;28;20109;-77
2023/12/11 11:17:09;;;;;;;1.00;1.00;;;;;;;-8.11;87.29;99818.41;4965755;28;20055;-78
2023/12/11 11:19:37;;;;;;;1.10;1.10;;;;;;;-8.09;87.39;99821.78;4963941;28;20135;-79
2023/12/11 11:22:04;;;;;;;1.05;1.05;;;;;;;-8.06;87.39;99821.56;4973476;28;20061;-78
2023/12/11 11:24:37;;;;;;;1.08;1.08;;;;;;;-8.17;87.13;99819.69;4962778;28;20058;-78
2023/12/11 11:27:39;;;;;;;0.85;0.85;;;;;;;-8.21;87.35;99817.38;4993198;28;20505;-77
2023/12/11 11:30:08;;;;;;;0.80;0.80;;;;;;;-8.29;87.15;99787.31;4996520;28;20133;-78
2023/12/11 11:32:53;;;;;;;0.90;0.90;;;;;;;-8.25;87.57;99789.72;4978783;28;20054;-77
2023/12/11 11:35:45;;;;;;;1.10;1.10;;;;;;;-8.20;87.78;99785.00;4971311;28;20054;-77